Time;durP1;ratioP1;P1;durP2;ratioP2;P2;SDS_P1;SDS_P2;PMS_P1;PMS_P2;Temp;Humidity;BMP_temperature;BMP_pressure;BME280_temperature;BME280_humidity;BME280_pressure;Samples;Min_cycle;Max_cycle;Signal;HPM_P1;HPM_P2
2023/08/03 00:01:39;;;;;;;9.40;7.50;;;;;;;15.35;100.00;96724.77;110225;1242;70650;-67
2023/08/03 00:04:09;;;;;;;;;;;;;;;15.34;100.00;96720.31;110225;1242;69266;-67
2023/08/03 00:06:39;;;;;;;8.90;7.80;;;;;;;15.29;100.00;96716.95;110172;1242;68139;-67
2023/08/03 00:09:10;;;;;;;10.40;8.20;;;;;;;15.25;100.00;96716.60;110193;1241;58902;-68
2023/08/03 00:11:41;;;;;;;8.60;7.40;;;;;;;15.23;100.00;96717.24;110184;1242;58875;-66
2023/08/03 00:14:11;;;;;;;9.60;8.20;;;;;;;15.20;100.00;96721.73;110215;1241;70507;-67
2023/08/03 00:16:42;;;;;;;9.40;7.40;;;;;;;15.17;100.00;96722.52;110228;1242;69339;-67
2023/08/03 00:19:12;;;;;;;9.70;8.70;;;;;;;15.15;100.00;96730.82;110248;1240;69274;-67
2023/08/03 00:21:42;;;;;;;9.50;8.50;;;;;;;15.04;100.00;96729.85;110187;1242;58874;-67
2023/08/03 00:24:13;;;;;;;10.20;8.00;;;;;;;14.92;100.00;96731.29;110222;1242;58873;-67
2023/08/03 00:26:43;;;;;;;10.10;7.90;;;;;;;14.86;100.00;96733.31;110247;1242;70626;-68
2023/08/03 00:29:12;;;;;;;10.50;8.50;;;;;;;14.82;100.00;96735.77;110250;1242;69143;-67
2023/08/03 00:31:45;;;;;;;10.00;9.00;;;;;;;14.79;100.00;96733.61;110199;1241;68461;-68
2023/08/03 00:34:17;;;;;;;8.90;8.00;;;;;;;14.77;100.00;96728.76;110195;1243;58939;-67
2023/08/03 00:36:48;;;;;;;9.30;8.30;;;;;;;14.74;100.00;96723.41;110186;1243;58821;-67
2023/08/03 00:39:20;;;;;;;8.20;7.30;;;;;;;14.69;100.00;96723.94;110180;1240;68967;-67
2023/08/03 00:41:51;;;;;;;10.40;7.60;;;;;;;14.64;100.00;96722.82;110232;1242;69122;-67
2023/08/03 00:44:22;;;;;;;10.70;9.20;;;;;;;14.60;100.00;96727.85;110222;1242;69271;-68
2023/08/03 00:46:53;;;;;;;10.90;7.90;;;;;;;14.55;100.00;96725.17;110194;1242;58902;-67
2023/08/03 00:49:30;;;;;;;10.60;7.70;;;;;;;14.50;100.00;96725.46;110234;1241;58934;-67
2023/08/03 00:52:00;;;;;;;9.10;7.60;;;;;;;14.46;100.00;96720.25;110171;1245;68713;-68
2023/08/03 00:54:31;;;;;;;8.20;7.30;;;;;;;14.42;100.00;96716.23;110267;1242;69850;-68
2023/08/03 00:57:01;;;;;;;8.50;7.50;;;;;;;14.38;100.00;96717.68;110161;1241;69094;-68
2023/08/03 00:59:33;;;;;;;8.60;7.60;;;;;;;14.39;100.00;96720.29;110179;1240;58944;-67
2023/08/03 01:02:05;;;;;;;13.70;9.30;;;;;;;14.39;100.00;96723.77;110164;1240;58960;-67
2023/08/03 01:04:39;;;;;;;12.30;9.60;;;;;;;14.32;100.00;96726.34;110179;1241;70487;-67
2023/08/03 01:07:10;;;;;;;14.90;10.90;;;;;;;14.30;100.00;96728.66;110184;1242;68351;-66
2023/08/03 01:09:42;;;;;;;14.50;11.00;;;;;;;14.29;100.00;96735.59;110229;1248;68364;-67
2023/08/03 01:12:16;;;;;;;14.20;10.80;;;;;;;14.27;100.00;96733.83;110162;1243;59295;-67
2023/08/03 01:14:47;;;;;;;17.90;12.90;;;;;;;14.28;100.00;96726.94;110211;1240;58882;-67
2023/08/03 01:17:21;;;;;;;17.20;12.30;;;;;;;14.30;100.00;96725.08;110117;1241;70417;-67
2023/08/03 01:19:52;;;;;;;14.70;10.90;;;;;;;14.27;100.00;96726.27;110172;1241;69228;-67
2023/08/03 01:22:25;;;;;;;12.10;9.90;;;;;;;14.25;100.00;96724.91;110140;1240;69266;-67
2023/08/03 01:24:56;;;;;;;12.30;10.00;;;;;;;14.36;100.00;96724.76;110197;1241;58956;-67
2023/08/03 01:27:26;;;;;;;13.20;10.00;;;;;;;14.37;100.00;96723.98;110231;1242;58880;-68
2023/08/03 01:29:57;;;;;;;13.20;10.90;;;;;;;14.33;100.00;96727.83;110182;1241;70483;-67
2023/08/03 01:32:30;;;;;;;13.80;10.70;;;;;;;14.24;100.00;96734.32;110189;1244;68440;-66
2023/08/03 01:35:01;;;;;;;14.70;11.60;;;;;;;14.20;100.00;96737.88;110170;1242;69113;-66
2023/08/03 01:37:37;;;;;;;14.80;11.30;;;;;;;14.18;100.00;96739.84;110151;1241;58814;-66
2023/08/03 01:40:12;;;;;;;14.60;10.90;;;;;;;14.17;100.00;96738.30;110153;1242;58887;-66
2023/08/03 01:42:42;;;;;;;16.20;12.00;;;;;;;14.15;100.00;96738.52;110182;1242;70569;-67
2023/08/03 01:45:13;;;;;;;13.20;10.70;;;;;;;14.14;100.00;96735.98;110124;1242;67681;-66
2023/08/03 01:47:45;;;;;;;13.70;10.50;;;;;;;14.13;100.00;96737.33;110169;1243;68575;-65
2023/08/03 01:50:18;;;;;;;15.30;12.10;;;;;;;14.14;100.00;96738.11;110206;1241;58940;-66
2023/08/03 01:52:52;;;;;;;13.60;10.50;;;;;;;14.15;100.00;96737.44;110219;1242;58862;-67
2023/08/03 01:55:23;;;;;;;14.50;10.30;;;;;;;14.15;100.00;96740.98;110227;1240;71048;-68
2023/08/03 01:57:55;;;;;;;13.20;9.40;;;;;;;14.17;100.00;96735.67;110203;1245;69266;-67
2023/08/03 02:00:28;;;;;;;9.40;8.40;;;;;;;14.10;100.00;96736.93;110194;1242;68520;-66
2023/08/03 02:02:59;;;;;;;11.70;9.00;;;;;;;14.06;100.00;96729.85;110192;1241;58873;-66
2023/08/03 02:05:34;;;;;;;10.20;8.30;;;;;;;14.02;100.00;96734.94;110090;1245;59348;-66
2023/08/03 02:08:06;;;;;;;10.20;7.80;;;;;;;13.99;100.00;96740.42;110141;1243;69910;-66
2023/08/03 02:10:39;;;;;;;10.60;9.00;;;;;;;13.95;100.00;96740.48;110167;1243;68287;-66
2023/08/03 02:13:15;;;;;;;10.30;8.60;;;;;;;13.91;100.00;96743.50;110194;1241;69381;-67
2023/08/03 02:15:46;;;;;;;10.50;8.50;;;;;;;13.90;100.00;96745.52;110201;1245;58899;-67
2023/08/03 02:18:16;;;;;;;12.00;9.70;;;;;;;13.88;100.00;96744.69;110227;1242;59021;-65
2023/08/03 02:20:46;;;;;;;12.00;9.80;;;;;;;13.87;100.00;96748.15;110218;1242;70622;-66
2023/08/03 02:23:16;;;;;;;11.60;10.00;;;;;;;13.93;100.00;96743.12;110235;1241;68340;-66
2023/08/03 02:25:46;;;;;;;12.30;10.80;;;;;;;13.88;100.00;96738.35;110169;1240;69833;-67
2023/08/03 02:28:17;;;;;;;14.20;11.70;;;;;;;13.89;100.00;96740.25;110142;1241;58877;-68
2023/08/03 02:30:53;;;;;;;12.60;11.30;;;;;;;13.88;100.00;96743.08;110215;1245;58878;-67
2023/08/03 02:33:28;;;;;;;11.20;9.70;;;;;;;13.87;100.00;96749.66;110216;1242;70488;-68
2023/08/03 02:36:01;;;;;;;11.40;9.40;;;;;;;13.86;100.00;96748.42;110202;1242;69248;-66
2023/08/03 02:38:35;;;;;;;9.70;8.60;;;;;;;13.88;100.00;96749.58;110169;1240;69313;-67
2023/08/03 02:41:05;;;;;;;10.50;8.50;;;;;;;13.82;100.00;96745.44;110132;1245;58934;-67
2023/08/03 02:43:40;;;;;;;13.20;10.60;;;;;;;13.77;100.00;96735.96;110237;1242;58875;-67
2023/08/03 02:46:13;;;;;;;11.80;10.20;;;;;;;13.80;100.00;96735.80;110148;1244;70813;-66
2023/08/03 02:48:45;;;;;;;12.30;9.90;;;;;;;13.71;100.00;96743.13;110192;1242;69232;-67
2023/08/03 02:51:24;;;;;;;12.70;9.70;;;;;;;13.67;100.00;96746.69;110180;1242;69794;-67
2023/08/03 02:53:54;;;;;;;12.90;9.80;;;;;;;13.66;100.00;96751.52;110106;1245;58924;-67
2023/08/03 02:56:26;;;;;;;11.30;9.50;;;;;;;13.65;100.00;96752.31;110215;1245;58923;-66
2023/08/03 02:58:57;;;;;;;10.50;9.20;;;;;;;13.64;100.00;96756.27;110229;1242;70083;-67
2023/08/03 03:01:33;;;;;;;10.50;8.20;;;;;;;13.64;100.00;96759.64;110210;1243;68420;-67
2023/08/03 03:04:04;;;;;;;12.00;10.00;;;;;;;13.65;100.00;96764.61;110186;1242;68334;-67
2023/08/03 03:06:38;;;;;;;14.70;11.30;;;;;;;13.68;100.00;96762.16;110120;1241;58934;-67
2023/08/03 03:09:08;;;;;;;13.00;10.70;;;;;;;13.72;100.00;96756.73;110184;1242;58950;-66
2023/08/03 03:11:39;;;;;;;11.60;9.80;;;;;;;13.75;100.00;96753.64;110207;1241;69869;-68
2023/08/03 03:14:09;;;;;;;12.30;9.90;;;;;;;13.79;100.00;96756.24;110207;1245;69240;-68
2023/08/03 03:16:40;;;;;;;11.10;9.40;;;;;;;13.81;100.00;96753.09;110179;1245;69347;-68
2023/08/03 03:19:10;;;;;;;13.30;10.50;;;;;;;13.82;100.00;96760.48;110153;1242;59772;-68
2023/08/03 03:21:42;;;;;;;11.90;9.60;;;;;;;13.85;100.00;96758.49;110198;1245;59741;-68
2023/08/03 03:24:15;;;;;;;11.80;9.50;;;;;;;13.87;100.00;96760.19;110256;1241;70458;-68
2023/08/03 03:26:48;;;;;;;11.20;8.90;;;;;;;13.90;100.00;96762.00;110214;1242;68384;-67
2023/08/03 03:29:21;;;;;;;14.40;11.30;;;;;;;13.93;100.00;96766.77;110175;1244;69123;-67
2023/08/03 03:31:54;;;;;;;12.40;10.40;;;;;;;13.92;100.00;96771.08;110195;1241;59678;-67
2023/08/03 03:34:25;;;;;;;11.70;9.20;;;;;;;13.88;100.00;96771.14;110160;1244;59664;-67
2023/08/03 03:36:56;;;;;;;10.40;8.80;;;;;;;13.85;100.00;96775.84;110162;1240;70705;-67
2023/08/03 03:39:29;;;;;;;10.70;9.50;;;;;;;13.84;100.00;96776.59;110245;1242;69295;-67
2023/08/03 03:42:00;;;;;;;9.50;8.50;;;;;;;13.85;100.00;96778.77;110187;1241;68523;-68
2023/08/03 03:44:36;;;;;;;12.10;10.00;;;;;;;13.87;100.00;96776.50;110140;1241;59775;-68
2023/08/03 03:47:07;;;;;;;11.70;8.80;;;;;;;13.90;100.00;96780.04;110166;1245;59678;-67
2023/08/03 03:49:39;;;;;;;12.00;8.60;;;;;;;13.96;100.00;96780.70;110218;1246;71468;-67
2023/08/03 03:52:09;;;;;;;11.20;8.50;;;;;;;14.11;100.00;96777.86;110210;1246;69121;-67
2023/08/03 03:54:40;;;;;;;;;;;;;;;14.19;100.00;96780.93;110273;1242;69348;-67
2023/08/03 03:57:09;;;;;;;10.90;8.60;;;;;;;14.27;100.00;96786.39;110221;1244;59740;-67
2023/08/03 03:59:39;;;;;;;11.10;9.10;;;;;;;14.37;100.00;96789.52;110203;1242;59655;-67
2023/08/03 04:02:10;;;;;;;10.40;8.30;;;;;;;14.38;100.00;96791.50;110239;1242;71024;-68
2023/08/03 04:04:40;;;;;;;10.10;8.60;;;;;;;14.38;100.00;96793.63;110224;1242;68545;-68
2023/08/03 04:07:10;;;;;;;10.50;7.90;;;;;;;14.44;100.00;96797.70;110155;1244;69756;-68
2023/08/03 04:09:40;;;;;;;9.60;8.00;;;;;;;14.53;100.00;96799.22;110193;1244;59746;-68
2023/08/03 04:12:09;;;;;;;9.40;7.50;;;;;;;14.61;100.00;96800.81;110239;1248;59621;-68
2023/08/03 04:14:39;;;;;;;9.40;7.90;;;;;;;14.74;100.00;96800.80;110249;1242;71530;-68
2023/08/03 04:17:08;;;;;;;9.10;7.80;;;;;;;14.83;100.00;96801.31;110231;1242;68313;-68
2023/08/03 04:19:40;;;;;;;9.00;7.70;;;;;;;14.96;100.00;96797.20;110239;1243;69144;-68
2023/08/03 04:22:10;;;;;;;10.70;8.90;;;;;;;15.20;100.00;96794.95;110224;1240;59695;-67
2023/08/03 04:24:42;;;;;;;8.40;7.50;;;;;;;15.48;100.00;96794.35;110258;1242;59666;-69
2023/08/03 04:27:11;;;;;;;7.60;6.50;;;;;;;15.80;100.00;96793.58;110212;1241;72352;-69
2023/08/03 04:29:42;;;;;;;7.40;6.30;;;;;;;16.17;100.00;96798.83;110241;1242;68608;-67
2023/08/03 04:32:12;;;;;;;7.00;6.20;;;;;;;16.45;100.00;96796.69;110133;1243;69747;-67
2023/08/03 04:34:43;;;;;;;8.70;7.00;;;;;;;16.69;100.00;96795.98;110163;1240;59722;-66
2023/08/03 04:37:13;;;;;;;8.10;6.90;;;;;;;16.91;100.00;96793.08;110153;1245;59811;-69
2023/08/03 04:39:44;;;;;;;8.10;7.10;;;;;;;16.97;100.00;96786.04;110142;1242;71891;-66
2023/08/03 04:42:16;;;;;;;10.00;7.90;;;;;;;17.09;100.00;96787.11;110180;1242;68187;-69
2023/08/03 04:44:46;;;;;;;9.00;7.50;;;;;;;17.15;100.00;96791.48;110197;1242;68552;-69
2023/08/03 04:47:16;;;;;;;8.50;7.10;;;;;;;17.19;100.00;96792.15;110194;1245;59760;-69
2023/08/03 04:49:46;;;;;;;7.80;6.90;;;;;;;17.21;100.00;96796.46;110194;1242;59688;-70
2023/08/03 04:52:17;;;;;;;6.90;6.20;;;;;;;17.27;100.00;96799.85;110238;1242;71396;-70
2023/08/03 04:54:46;;;;;;;7.50;6.20;;;;;;;17.29;100.00;96802.66;110199;1242;68480;-69
2023/08/03 04:57:16;;;;;;;7.10;6.00;;;;;;;17.36;100.00;96802.94;110148;1244;68574;-70
2023/08/03 04:59:46;;;;;;;8.30;6.40;;;;;;;17.48;100.00;96802.81;110217;1242;59670;-69
2023/08/03 05:02:16;;;;;;;7.10;6.40;;;;;;;17.68;100.00;96808.73;110178;1244;59761;-70
2023/08/03 05:04:46;;;;;;;7.00;5.80;;;;;;;17.92;100.00;96808.92;110172;1240;71412;-69
2023/08/03 05:07:15;;;;;;;5.90;5.30;;;;;;;18.06;100.00;96807.97;110180;1244;69732;-68
2023/08/03 05:09:46;;;;;;;6.70;5.80;;;;;;;18.36;100.00;96803.58;110106;1246;69286;-69
2023/08/03 05:12:16;;;;;;;6.20;5.30;;;;;;;18.85;100.00;96812.39;110177;1242;59736;-70
2023/08/03 05:14:45;;;;;;;6.10;5.50;;;;;;;19.17;100.00;96809.49;110182;1242;59758;-70
2023/08/03 05:17:16;;;;;;;5.80;5.20;;;;;;;19.58;100.00;96812.89;110192;1242;70407;-70
2023/08/03 05:19:45;;;;;;;;;;;;;;;19.94;100.00;96812.30;110211;1241;69158;-69
2023/08/03 05:22:16;;;;;;;6.60;5.90;;;;;;;20.46;100.00;96815.32;110156;1245;68545;-69
2023/08/03 05:24:46;;;;;;;5.60;5.10;;;;;;;20.88;100.00;96815.50;110216;1242;59689;-68
2023/08/03 05:27:15;;;;;;;5.30;4.80;;;;;;;21.28;95.99;96814.55;110190;1242;59708;-70
2023/08/03 05:29:44;;;;;;;;;;;;;;;21.63;96.96;96814.95;110166;1242;70450;-70
2023/08/03 05:32:14;;;;;;;4.50;4.10;;;;;;;22.06;100.00;96816.79;110152;1242;67648;-70
2023/08/03 05:34:43;;;;;;;4.60;4.10;;;;;;;22.37;88.90;96820.04;110147;1242;69860;-70
2023/08/03 05:37:15;;;;;;;6.10;4.20;;;;;;;22.70;89.72;96824.64;110158;1241;59772;-70
2023/08/03 05:39:45;;;;;;;4.60;4.10;;;;;;;22.90;81.01;96827.02;110184;1245;59699;-68
2023/08/03 05:42:17;;;;;;;4.10;3.70;;;;;;;23.05;84.50;96829.13;110160;1242;69646;-70
2023/08/03 05:44:47;;;;;;;5.00;3.90;;;;;;;23.40;87.41;96834.14;110198;1242;69808;-71
2023/08/03 05:47:17;;;;;;;4.90;4.00;;;;;;;23.40;78.55;96834.96;110134;1242;68518;-70
2023/08/03 05:49:47;;;;;;;4.70;4.20;;;;;;;23.71;82.57;96840.33;110146;1242;59669;-70
2023/08/03 05:52:16;;;;;;;5.00;4.30;;;;;;;23.54;76.27;96836.66;110179;1241;59735;-71
2023/08/03 05:54:48;;;;;;;5.20;4.30;;;;;;;23.17;76.33;96839.16;110156;1245;71976;-71
2023/08/03 05:57:17;;;;;;;5.10;4.30;;;;;;;22.96;77.80;96839.20;110178;1242;69179;-68
2023/08/03 05:59:47;;;;;;;4.40;3.80;;;;;;;23.07;76.41;96840.38;110175;1241;68498;-67
2023/08/03 06:02:35;;;;;;;4.10;3.70;;;;;;;23.37;77.21;96839.14;110148;1242;59732;-68
2023/08/03 06:05:26;;;;;;;4.30;3.80;;;;;;;23.91;79.52;96839.33;110208;1242;59646;-70
2023/08/03 06:07:55;;;;;;;4.50;4.10;;;;;;;24.30;75.92;96832.56;110106;1240;71384;-69
2023/08/03 06:10:25;;;;;;;3.80;3.50;;;;;;;24.58;75.50;96828.55;110161;1242;68507;-71
2023/08/03 06:12:56;;;;;;;4.60;3.60;;;;;;;24.87;70.50;96825.20;110150;1249;69100;-70
2023/08/03 06:15:25;;;;;;;4.20;3.70;;;;;;;25.09;69.13;96829.10;110170;1249;59804;-68
2023/08/03 06:18:09;;;;;;;3.70;3.10;;;;;;;25.25;68.71;96827.34;110156;1243;59631;-70
2023/08/03 06:20:42;;;;;;;3.30;3.00;;;;;;;25.41;67.13;96821.75;110167;1243;71966;-67
2023/08/03 06:23:25;;;;;;;3.80;3.30;;;;;;;25.55;66.21;96826.30;110152;1244;69832;-69
2023/08/03 06:25:55;;;;;;;4.10;3.30;;;;;;;25.63;63.72;96830.20;110151;1241;68550;-69
2023/08/03 06:28:25;;;;;;;3.60;3.10;;;;;;;25.65;63.18;96832.17;110154;1243;59662;-69
2023/08/03 06:30:55;;;;;;;3.60;3.20;;;;;;;25.72;63.65;96832.48;110134;1242;59659;-69
2023/08/03 06:33:24;;;;;;;4.50;3.60;;;;;;;25.98;62.63;96837.95;110161;1241;71962;-68
2023/08/03 06:35:53;;;;;;;;;;;;;;;25.99;61.64;96836.92;110187;1247;69266;-69
2023/08/03 06:38:22;;;;;;;;;;;;;;;26.14;62.14;96834.89;110159;1240;68511;-69
2023/08/03 06:40:52;;;;;;;3.30;3.00;;;;;;;26.23;59.69;96834.35;110210;1242;59708;-69
2023/08/03 06:43:21;;;;;;;4.70;3.20;;;;;;;26.28;59.29;96838.95;110201;1249;59692;-70
2023/08/03 06:45:50;;;;;;;;;;;;;;;26.47;61.17;96837.94;110216;1243;70687;-69
2023/08/03 06:48:22;;;;;;;4.30;3.20;;;;;;;26.64;59.09;96836.96;110199;1241;69076;-69
2023/08/03 06:50:53;;;;;;;3.40;2.80;;;;;;;26.72;59.08;96835.41;110142;1241;69344;-69
2023/08/03 06:53:23;;;;;;;3.90;2.90;;;;;;;26.97;57.93;96831.48;110163;1242;59698;-69
2023/08/03 06:55:52;;;;;;;3.80;3.10;;;;;;;27.20;56.64;96829.52;110168;1242;59646;-68
2023/08/03 06:58:21;;;;;;;;;;;;;;;27.39;55.33;96833.86;110166;1240;71723;-68
2023/08/03 07:00:50;;;;;;;3.30;3.00;;;;;;;27.55;55.21;96829.80;110203;1241;70009;-70
2023/08/03 07:03:20;;;;;;;3.80;2.90;;;;;;;27.70;54.39;96826.41;110216;1242;68534;-71
2023/08/03 07:05:49;;;;;;;2.90;2.60;;;;;;;27.88;55.00;96825.11;110220;1242;59735;-71
2023/08/03 07:08:19;;;;;;;2.90;2.50;;;;;;;28.05;54.43;96817.89;110191;1241;59689;-71
2023/08/03 07:10:48;;;;;;;3.70;2.90;;;;;;;28.28;53.14;96819.45;110138;1248;70675;-70
2023/08/03 07:13:18;;;;;;;3.10;2.30;;;;;;;28.15;51.21;96818.27;110187;1243;69364;-70
2023/08/03 07:15:47;;;;;;;3.50;2.80;;;;;;;28.43;52.46;96812.45;110204;1241;69339;-69
2023/08/03 07:18:16;;;;;;;5.00;2.70;;;;;;;28.33;49.89;96811.98;110174;1242;59719;-70
2023/08/03 07:20:46;;;;;;;3.00;2.70;;;;;;;28.68;50.62;96812.77;110256;1249;59688;-69
2023/08/03 07:23:15;;;;;;;3.00;2.60;;;;;;;28.84;49.89;96811.92;110213;1242;72002;-69
2023/08/03 07:25:48;;;;;;;3.00;2.70;;;;;;;29.02;50.00;96810.59;110167;1242;69187;-70
2023/08/03 07:28:17;;;;;;;2.90;2.60;;;;;;;29.16;48.79;96811.90;110165;1241;67826;-68
2023/08/03 07:30:47;;;;;;;3.30;3.00;;;;;;;29.22;49.22;96816.63;110240;1243;59744;-69
2023/08/03 07:33:16;;;;;;;;;;;;;;;29.24;47.38;96815.14;110240;1243;59670;-69
2023/08/03 07:35:44;;;;;;;;;;;;;;;29.29;47.16;96816.64;110196;1242;71765;-68
2023/08/03 07:38:13;;;;;;;4.30;3.40;;;;;;;29.41;47.90;96815.33;110206;1242;69842;-69
2023/08/03 07:40:43;;;;;;;4.70;2.80;;;;;;;29.55;48.02;96809.63;110229;1247;69126;-69
2023/08/03 07:43:12;;;;;;;4.60;2.60;;;;;;;29.58;47.51;96806.98;110246;1242;59804;-68
2023/08/03 07:45:41;;;;;;;3.30;2.90;;;;;;;29.70;46.66;96808.08;110218;1241;59820;-69
2023/08/03 07:48:13;;;;;;;3.30;3.00;;;;;;;29.71;46.75;96809.43;110203;1242;72367;-68
2023/08/03 07:50:42;;;;;;;3.50;2.50;;;;;;;29.43;46.65;96810.14;110235;1242;68494;-66
2023/08/03 07:53:11;;;;;;;2.90;2.60;;;;;;;29.35;48.73;96813.08;110216;1243;69107;-66
2023/08/03 07:55:40;;;;;;;3.30;2.30;;;;;;;29.61;47.61;96814.40;110228;1242;59705;-67
2023/08/03 07:58:12;;;;;;;3.70;2.80;;;;;;;29.67;45.74;96809.13;110243;1241;59684;-67
2023/08/03 08:00:41;;;;;;;3.20;2.90;;;;;;;29.49;45.10;96814.98;110216;1242;71956;-67
2023/08/03 08:03:11;;;;;;;3.10;2.80;;;;;;;29.62;46.26;96812.92;110227;1242;69065;-66
2023/08/03 08:05:41;;;;;;;4.80;2.60;;;;;;;29.63;46.57;96807.77;110163;1245;70304;-65
2023/08/03 08:08:10;;;;;;;3.20;2.60;;;;;;;29.77;45.74;96810.71;110270;1242;59751;-66
2023/08/03 08:10:39;;;;;;;3.20;2.60;;;;;;;29.73;46.70;96809.42;110166;1243;59681;-66
2023/08/03 08:13:08;;;;;;;3.40;2.40;;;;;;;30.13;46.71;96812.49;110188;1242;72334;-66
2023/08/03 08:15:38;;;;;;;3.20;2.10;;;;;;;30.35;42.32;96811.65;110243;1245;69669;-66
2023/08/03 08:18:09;;;;;;;2.50;2.30;;;;;;;30.34;42.26;96810.33;110206;1247;69837;-66
2023/08/03 08:20:39;;;;;;;3.60;2.30;;;;;;;30.47;43.49;96810.85;110199;1246;59747;-66
2023/08/03 08:23:08;;;;;;;3.00;2.50;;;;;;;30.73;42.88;96816.38;110207;1242;59630;-66
2023/08/03 08:25:38;;;;;;;2.80;2.40;;;;;;;30.95;42.64;96817.52;110194;1243;71429;-66
2023/08/03 08:28:08;;;;;;;2.70;2.20;;;;;;;30.82;42.50;96815.79;110179;1249;69825;-66
2023/08/03 08:30:37;;;;;;;3.00;2.40;;;;;;;30.89;42.60;96813.38;110178;1243;69136;-67
2023/08/03 08:33:06;;;;;;;4.10;2.70;;;;;;;30.74;42.62;96810.09;110199;1242;59682;-65
2023/08/03 08:35:36;;;;;;;2.60;2.20;;;;;;;30.75;42.35;96808.37;110202;1242;59640;-66
2023/08/03 08:38:10;;;;;;;2.50;2.20;;;;;;;30.84;42.58;96808.35;110191;1241;71366;-67
2023/08/03 08:40:41;;;;;;;2.80;2.30;;;;;;;31.07;43.00;96806.35;110193;1242;68617;-66
2023/08/03 08:43:11;;;;;;;2.50;1.80;;;;;;;31.35;41.71;96808.88;110196;1242;68549;-66
2023/08/03 08:45:40;;;;;;;2.60;2.20;;;;;;;31.45;41.85;96808.20;110215;1243;59660;-66
2023/08/03 08:48:09;;;;;;;4.50;2.50;;;;;;;31.72;42.65;96806.55;110175;1242;59646;-65
2023/08/03 08:50:42;;;;;;;3.20;2.60;;;;;;;31.80;41.77;96804.42;110185;1242;71960;-66
2023/08/03 08:53:16;;;;;;;2.80;2.30;;;;;;;32.18;40.71;96805.70;110212;1240;69041;-64
2023/08/03 08:55:46;;;;;;;2.80;2.50;;;;;;;32.42;38.70;96806.64;110215;1242;69882;-67
2023/08/03 08:58:19;;;;;;;2.80;2.50;;;;;;;32.49;38.66;96805.59;110208;1242;59716;-67
2023/08/03 09:00:49;;;;;;;3.30;2.40;;;;;;;32.56;39.09;96807.23;110220;1242;59679;-65
2023/08/03 09:03:18;;;;;;;2.90;2.50;;;;;;;32.58;39.64;96805.02;110216;1242;71980;-66
2023/08/03 09:05:58;;;;;;;2.10;1.90;;;;;;;32.96;38.89;96808.95;110223;1243;69090;-67
2023/08/03 09:08:58;;;;;;;3.00;2.30;;;;;;;33.27;37.74;96809.41;110214;1242;69664;-64
2023/08/03 09:11:40;;;;;;;2.50;2.30;;;;;;;33.17;37.69;96813.31;110153;1241;59702;-64
2023/08/03 09:14:14;;;;;;;3.00;2.20;;;;;;;33.35;36.73;96810.00;110127;1244;59727;-66
2023/08/03 09:16:43;;;;;;;4.20;2.60;;;;;;;33.37;35.26;96812.82;110247;1242;71375;-66
2023/08/03 09:19:12;;;;;;;3.00;2.50;;;;;;;33.24;35.12;96811.59;110213;1242;69636;-65
2023/08/03 09:21:57;;;;;;;2.80;2.50;;;;;;;33.10;34.56;96809.67;110147;1242;70126;-67
2023/08/03 09:24:29;;;;;;;2.90;2.50;;;;;;;32.90;35.60;96805.96;110195;1242;59743;-67
2023/08/03 09:27:01;;;;;;;3.50;2.70;;;;;;;32.62;36.42;96807.63;109731;1242;578339;-67
2023/08/03 09:29:34;;;;;;;2.90;2.60;;;;;;;32.68;35.92;96806.78;110207;1242;71407;-64
2023/08/03 09:32:05;;;;;;;3.50;2.90;;;;;;;32.28;36.93;96805.84;110199;1240;69071;-63
2023/08/03 09:34:56;;;;;;;3.60;2.80;;;;;;;32.11;37.52;96807.67;110149;1242;69796;-66
2023/08/03 09:37:36;;;;;;;2.70;2.40;;;;;;;32.12;38.14;96805.54;110139;1242;59667;-67
2023/08/03 09:40:09;;;;;;;3.20;2.60;;;;;;;32.86;37.54;96806.39;110180;1243;59694;-66
2023/08/03 09:42:40;;;;;;;3.20;2.50;;;;;;;33.45;35.47;96806.77;110218;1242;71062;-67
2023/08/03 09:45:12;;;;;;;4.50;2.70;;;;;;;33.56;35.28;96806.85;110207;1241;69376;-66
2023/08/03 09:47:49;;;;;;;3.50;2.90;;;;;;;33.94;33.35;96805.12;110173;1242;69877;-65
2023/08/03 09:50:21;;;;;;;2.60;2.00;;;;;;;33.91;33.59;96804.95;110204;1242;59740;-65
2023/08/03 09:52:54;;;;;;;2.90;2.60;;;;;;;34.03;34.14;96803.09;110220;1243;60076;-64
2023/08/03 09:55:28;;;;;;;2.90;2.40;;;;;;;34.14;34.02;96807.19;110204;1241;71207;-64
2023/08/03 09:58:05;;;;;;;3.30;2.30;;;;;;;33.73;34.34;96805.27;110194;1242;69085;-66
2023/08/03 10:00:37;;;;;;;2.80;2.50;;;;;;;34.40;33.39;96808.92;110176;1241;68523;-66
2023/08/03 10:03:12;;;;;;;3.30;2.40;;;;;;;34.71;33.13;96806.65;110184;1241;59740;-65
2023/08/03 10:06:00;;;;;;;4.00;3.10;;;;;;;34.97;32.93;96807.17;110151;1245;59734;-66
2023/08/03 10:08:37;;;;;;;3.10;2.60;;;;;;;34.40;34.00;96801.27;110214;1240;71096;-66
2023/08/03 10:11:09;;;;;;;4.40;3.00;;;;;;;33.36;35.28;96805.23;110210;1242;69813;-64
2023/08/03 10:13:46;;;;;;;3.10;2.50;;;;;;;33.35;34.91;96798.20;110217;1249;69874;-66
2023/08/03 10:16:17;;;;;;;3.00;2.70;;;;;;;33.73;35.47;96797.08;110229;1247;59708;-66
2023/08/03 10:18:47;;;;;;;5.50;3.20;;;;;;;34.48;34.73;96795.20;110216;1241;59737;-66
2023/08/03 10:21:29;;;;;;;3.10;2.60;;;;;;;34.79;33.98;96794.23;110225;1240;71973;-65
2023/08/03 10:24:12;;;;;;;2.60;2.40;;;;;;;34.89;33.15;96794.83;110245;1241;69398;-65
2023/08/03 10:26:42;;;;;;;3.60;2.90;;;;;;;35.19;33.04;96793.10;110201;1242;69316;-66
2023/08/03 10:29:12;;;;;;;3.40;3.00;;;;;;;35.24;32.06;96789.30;110198;1242;59698;-67
2023/08/03 10:31:53;;;;;;;3.40;2.60;;;;;;;34.98;32.03;96789.77;110205;1241;59674;-66
2023/08/03 10:34:29;;;;;;;3.60;2.60;;;;;;;34.44;32.14;96784.43;110239;1241;71930;-66
2023/08/03 10:36:58;;;;;;;3.20;2.90;;;;;;;33.96;33.76;96783.91;110277;1243;69904;-66
2023/08/03 10:39:48;;;;;;;2.90;2.40;;;;;;;33.92;34.16;96783.48;110239;1241;69550;-66
2023/08/03 10:42:19;;;;;;;3.20;2.70;;;;;;;33.91;34.18;96778.84;110192;1242;59727;-66
2023/08/03 10:44:48;;;;;;;3.60;2.80;;;;;;;34.03;33.83;96784.55;110221;1241;59670;-66
2023/08/03 10:47:26;;;;;;;3.50;2.70;;;;;;;34.01;33.81;96779.13;110231;1241;71349;-65
2023/08/03 10:49:58;;;;;;;3.70;3.10;;;;;;;34.17;33.84;96776.80;110194;1242;69830;-66
2023/08/03 10:52:30;;;;;;;5.90;3.50;;;;;;;34.31;33.90;96773.59;110162;1242;68624;-66
2023/08/03 10:55:19;;;;;;;3.10;2.80;;;;;;;33.76;34.79;96772.19;110224;1241;60127;-66
2023/08/03 10:57:48;;;;;;;3.40;3.10;;;;;;;34.02;35.38;96770.02;110211;1241;59706;-65
2023/08/03 11:00:18;;;;;;;3.30;2.70;;;;;;;34.36;34.83;96769.06;110273;1241;71873;-67
2023/08/03 11:02:50;;;;;;;2.90;2.40;;;;;;;34.39;34.02;96770.46;110172;1242;69283;-65
2023/08/03 11:05:19;;;;;;;4.30;3.40;;;;;;;34.49;33.74;96765.25;110154;1242;69321;-67
2023/08/03 11:07:48;;;;;;;3.00;2.70;;;;;;;34.42;34.03;96767.52;110135;1241;59689;-66
2023/08/03 11:10:17;;;;;;;3.70;2.70;;;;;;;34.69;34.07;96767.54;110183;1242;59681;-66
2023/08/03 11:12:49;;;;;;;3.00;2.50;;;;;;;34.65;33.93;96762.34;110228;1241;71801;-66
2023/08/03 11:15:18;;;;;;;4.10;2.50;;;;;;;35.02;34.96;96767.36;110232;1242;69698;-66
2023/08/03 11:17:53;;;;;;;3.60;2.80;;;;;;;35.48;33.60;96767.75;110186;1242;69874;-65
2023/08/03 11:20:22;;;;;;;3.40;2.70;;;;;;;35.67;33.35;96768.61;110175;1241;59675;-65
2023/08/03 11:22:51;;;;;;;3.00;2.70;;;;;;;35.82;32.18;96762.23;110159;1243;59691;-66
2023/08/03 11:25:22;;;;;;;4.50;3.10;;;;;;;35.65;33.54;96762.63;110245;1242;70659;-66
2023/08/03 11:27:51;;;;;;;2.70;2.30;;;;;;;36.16;32.76;96760.60;110196;1242;69681;-66
2023/08/03 11:30:21;;;;;;;3.10;2.40;;;;;;;36.43;32.53;96753.24;110186;1242;69611;-66
2023/08/03 11:32:58;;;;;;;2.90;2.40;;;;;;;36.20;32.40;96755.18;110119;1240;59688;-66
2023/08/03 11:35:28;;;;;;;2.90;2.50;;;;;;;36.47;32.80;96750.52;110189;1242;59701;-67
2023/08/03 11:37:57;;;;;;;3.00;2.30;;;;;;;37.02;32.26;96753.91;110160;1242;71948;-67
2023/08/03 11:40:26;;;;;;;2.90;2.60;;;;;;;37.01;30.76;96754.05;110193;1247;69806;-67